Latest Weather Observations for Stawell

IDV60801

Issued at 10:35 am EST Wednesday 1 October 2014 (issued every 30 minutes, with the page automatically refreshed every 10 minutes)

About weather observations | Map of weather stations | Latest weather observations for VIC | Other Formats
Station Details ID: 079105 Name: STAWELL AERODROME Lat: -37.07 Lon: 142.74 Height: 235.36 m
Data from the previous 72 hours. | See also: Recent months at Stawell
Date/Time
EST
Temp
°C
App
Temp
°C
Dew
Point
Rel
Hum
%
Delta-T
°C
Wind Press
QNH
hPa
Press
MSL
hPa
Rain
since 9 am
mm
Dir
 
Spd
km/h
Gust
km/h
Spd
kts
Gust
kts
01/10:30am 12.1 8.0 2.0 50 4.4 SW 13 20 7 11 1024.6 - 0.0
01/10:00am 11.2 6.6 1.5 51 4.1 SW 15 20 8 11 1024.4 - 0.0
01/09:30am 10.4 5.5 2.0 56 3.6 SW 17 24 9 13 1024.2 - 0.0
01/09:00am 10.5 5.7 2.4 57 3.5 SW 17 28 9 15 1023.9 1024.7 0.6
01/08:30am 10.1 5.3 2.7 60 3.2 SW 17 26 9 14 1023.4 - 0.6
01/08:00am 9.2 5.6 3.0 65 2.7 WSW 11 19 6 10 1022.9 - 0.6
01/07:30am 7.7 5.4 2.8 71 2.1 WSW 4 9 2 5 1022.6 - 0.6
01/07:00am 6.2 3.4 2.3 76 1.6 SW 6 9 3 5 1022.0 - 0.6
01/06:30am 5.0 2.1 1.5 78 1.4 W 6 7 3 4 1021.5 - 0.6
01/06:00am 5.8 2.7 1.5 74 1.7 W 7 9 4 5 1020.8 1021.6 0.6
01/05:30am 6.0 3.1 1.3 72 1.9 NNW 6 9 3 5 1020.2 - 0.6
01/05:00am 6.6 2.7 1.3 69 2.2 SW 11 20 6 11 1019.8 - 0.6
01/04:30am 6.6 2.3 1.1 68 2.2 SW 13 22 7 12 1019.4 - 0.6
01/04:00am 6.6 1.9 1.1 68 2.2 SW 15 20 8 11 1019.0 - 0.6
01/03:30am 6.1 3.0 1.1 70 2.0 SSW 7 13 4 7 1018.9 - 0.6
01/03:00am 7.1 4.5 1.2 66 2.4 SSE 4 7 2 4 1018.6 1019.4 0.6
01/02:30am 7.1 4.0 1.6 68 2.3 ESE 7 15 4 8 1018.4 - 0.6
01/02:00am 7.4 3.2 1.7 67 2.4 SSW 13 28 7 15 1018.0 - 0.6
01/01:30am 7.6 2.3 1.9 67 2.4 SW 19 32 10 17 1017.7 - 0.6
01/01:00am 7.3 2.4 1.8 68 2.3 WSW 17 24 9 13 1017.5 - 0.6
01/12:30am 7.4 2.9 2.1 69 2.2 WSW 15 24 8 13 1017.2 - 0.6
01/12:00am 7.2 2.7 2.1 70 2.1 WSW 15 26 8 14 1017.0 1017.8 0.6
 
Date/Time
EST
Temp
°C
App
Temp
°C
Dew
Point
Rel
Hum
%
Delta-T
°C
Wind Press
QNH
hPa
Press
MSL
hPa
Rain
since 9 am
mm
Dir
 
Spd
km/h
Gust
km/h
Spd
kts
Gust
kts
30/11:30pm 7.5 2.9 1.8 67 2.4 WSW 15 24 8 13 1016.6 - 0.6
30/11:00pm 7.7 2.5 2.4 69 2.2 SW 19 28 10 15 1016.4 - 0.6
30/10:30pm 7.1 2.3 2.4 72 2.0 SW 17 26 9 14 1016.1 - 0.6
30/10:00pm 7.0 2.1 2.3 72 2.0 WSW 17 26 9 14 1015.7 - 0.6
30/09:30pm 6.5 1.7 2.4 75 1.7 WSW 17 24 9 13 1015.3 - 0.6
30/09:00pm 6.3 1.5 2.8 78 1.5 WSW 17 26 9 14 1015.1 1016.1 0.6
30/08:30pm 6.7 1.1 3.5 80 1.4 SW 22 35 12 19 1015.2 - 0.6
30/08:06pm 8.0 0.9 3.3 72 2.0 WSW 30 52 16 28 1015.0 - 0.4
30/08:00pm 9.4 3.1 1.8 59 3.2 WSW 24 43 13 23 1014.5 - 0.4
30/07:30pm 9.5 5.0 1.9 59 3.2 WSW 15 30 8 16 1013.5 - 0.4
30/07:00pm 9.6 5.0 1.3 56 3.5 W 15 30 8 16 1012.7 - 0.4
30/06:30pm 9.3 5.1 1.9 60 3.1 W 13 26 7 14 1012.2 - 0.4
30/06:19pm 9.4 3.5 2.0 60 3.1 W 22 43 12 23 1012.4 - 0.4
30/06:04pm 11.1 0.6 1.4 51 4.1 WSW 46 67 25 36 1012.0 - 0.4
30/06:00pm 12.2 6.7 0.6 45 4.9 W 19 39 10 21 1011.4 1012.4 0.4
30/05:30pm 12.9 6.1 1.0 44 5.1 WSW 26 43 14 23 1010.6 - 0.4
30/05:00pm 13.7 6.8 2.6 47 5.0 SW 28 48 15 26 1009.9 - 0.4
30/04:52pm 13.5 6.2 2.7 48 4.8 SW 30 48 16 26 1009.8 - 0.4
30/04:30pm 14.0 9.1 4.3 52 4.5 W 19 35 10 19 1009.3 - 0.4
30/04:00pm 13.1 8.3 4.8 57 3.9 W 19 32 10 17 1009.0 - 0.4
30/03:30pm 11.9 6.5 6.4 69 2.6 WSW 24 41 13 22 1009.1 - 0.4
30/03:00pm 11.2 5.1 8.1 81 1.5 W 30 50 16 27 1008.8 1009.7 0.4
30/02:37pm 11.7 5.4 9.6 87 1.1 WSW 33 52 18 28 1007.8 - 0.4
30/02:33pm 11.9 4.7 9.1 83 1.4 WSW 37 56 20 30 1007.6 - 0.4
30/02:30pm 13.1 7.9 10.1 82 1.6 W 28 56 15 30 1007.6 - 0.4
30/02:00pm 14.4 8.3 9.6 73 2.5 W 32 57 17 31 1006.6 - 0.0
30/01:30pm 19.9 10.1 5.2 38 7.3 WNW 46 70 25 38 1005.0 - 0.0
30/01:00pm 19.3 9.7 4.3 37 7.3 WNW 44 69 24 37 1005.1 - 0.0
30/12:30pm 19.8 10.4 4.3 36 7.5 WNW 43 69 23 37 1005.3 - 0.0
30/12:00pm 20.2 11.1 3.9 34 7.9 WNW 41 72 22 39 1005.6 1006.5 0.0
30/11:30am 19.9 10.7 5.5 39 7.2 NW 43 63 23 34 1006.0 - 0.0
30/11:08am 19.5 10.5 6.3 42 6.7 NW 43 61 23 33 1006.3 - 0.0
30/11:00am 19.0 10.0 6.5 44 6.3 NNW 43 57 23 31 1006.4 - 0.0
30/10:33am 18.6 10.7 6.1 44 6.2 NW 37 56 20 30 1007.1 - 0.0
30/10:30am 18.7 11.2 6.5 45 6.1 NNW 35 50 19 27 1007.1 - 0.0
30/10:00am 17.5 9.6 6.4 48 5.5 NNW 37 52 20 28 1007.9 - 0.0
30/09:52am 17.5 11.0 6.4 48 5.5 NNW 30 50 16 27 1008.0 - 0.0
30/09:30am 16.0 11.1 8.5 61 3.9 NNW 24 33 13 18 1008.4 - 0.0
30/09:00am 14.0 9.4 8.0 67 3.0 NNW 22 32 12 17 1008.7 1009.6 0.0
30/08:30am 12.4 8.2 8.3 76 2.1 NNW 20 28 11 15 1008.9 - 0.0
30/08:00am 10.9 7.9 9.3 90 0.8 N 15 20 8 11 1009.2 - 0.0
30/07:30am 9.3 6.3 9.2 99 0.0 N 15 20 8 11 1009.3 - 0.0
30/07:00am 8.5 5.6 8.2 98 0.1 NNE 13 17 7 9 1009.4 - 0.0
30/06:30am 8.9 6.4 8.3 96 0.3 N 11 17 6 9 1009.4 - 0.0
30/06:00am 9.1 6.6 8.2 94 0.4 NNW 11 15 6 8 1009.7 1010.6 0.0
30/05:30am 9.2 6.3 8.1 93 0.5 NNW 13 17 7 9 1009.7 - 0.0
30/05:00am 9.5 6.5 7.9 90 0.8 NNW 13 17 7 9 1009.6 - 0.0
30/04:30am 10.1 6.8 7.9 86 1.1 NW 15 19 8 10 1009.4 - 0.0
30/04:00am 11.0 8.0 7.7 80 1.6 NNW 13 17 7 9 1009.2 - 0.0
30/03:30am 11.8 8.4 7.7 76 2.0 NW 15 17 8 9 1009.5 - 0.0
30/03:00am 12.5 9.4 7.4 71 2.5 NW 13 19 7 10 1009.6 1010.5 0.0
30/02:30am 12.4 10.1 7.3 71 2.5 W 9 13 5 7 1010.0 - 0.0
30/02:00am 13.0 10.7 7.5 69 2.7 WNW 9 17 5 9 1010.1 - 0.0
30/01:30am 12.9 10.7 7.8 71 2.5 W 9 17 5 9 1010.6 - 0.0
30/01:00am 12.1 10.0 8.2 77 1.9 W 9 11 5 6 1011.0 - 0.0
30/12:30am 11.8 10.2 7.9 77 1.9 NW 6 7 3 4 1011.2 - 0.0
30/12:00am 10.7 8.9 7.9 83 1.4 W 7 9 4 5 1011.3 1012.2 0.0
 
Date/Time
EST
Temp
°C
App
Temp
°C
Dew
Point
Rel
Hum
%
Delta-T
°C
Wind Press
QNH
hPa
Press
MSL
hPa
Rain
since 9 am
mm
Dir
 
Spd
km/h
Gust
km/h
Spd
kts
Gust
kts
29/11:30pm 10.9 9.5 7.2 78 1.8 WSW 4 6 2 3 1011.1 - 0.0
29/11:00pm 11.9 10.2 7.6 75 2.1 WSW 6 7 3 4 1011.4 - 0.0
29/10:30pm 12.0 9.7 7.5 74 2.2 NW 9 11 5 6 1011.5 - 0.0
29/10:00pm 12.5 11.9 7.2 70 2.6 CALM 0 0 0 0 1011.2 - 0.0
29/09:30pm 13.9 13.3 7.2 64 3.3 CALM 0 0 0 0 1011.4 - 0.0
29/09:00pm 15.1 13.1 7.2 59 3.9 NW 7 11 4 6 1011.4 1012.4 0.0
29/08:30pm 15.6 13.2 7.1 57 4.2 NW 9 11 5 6 1011.4 - 0.0
29/08:00pm 16.6 14.2 7.0 53 4.8 NNW 9 13 5 7 1011.2 - 0.0
29/07:30pm 17.1 14.4 7.2 52 5.0 NW 11 13 6 7 1010.9 - 0.0
29/07:00pm 18.1 14.9 6.9 48 5.7 NW 13 17 7 9 1010.7 - 0.0
29/06:30pm 18.8 15.2 6.9 46 6.0 NW 15 22 8 12 1010.6 - 0.0
29/06:00pm 19.8 15.2 6.5 42 6.8 NNW 20 28 11 15 1010.5 1011.4 0.0
29/05:30pm 20.3 14.7 5.5 38 7.4 NNW 24 33 13 18 1010.4 - 0.0
29/05:00pm 21.0 16.2 5.4 36 7.8 NW 20 35 11 19 1010.3 - 0.0
29/04:30pm 21.3 15.6 4.8 34 8.2 NW 24 37 13 20 1010.2 - 0.0
29/04:00pm 21.0 16.0 4.6 34 8.1 WNW 20 33 11 18 1010.4 - 0.0
29/03:30pm 21.3 15.8 4.0 32 8.5 NW 22 33 12 18 1010.6 - 0.0
29/03:00pm 21.2 14.9 3.9 32 8.4 NW 26 37 14 20 1010.9 1011.8 0.0
29/02:30pm 20.1 13.5 4.2 35 7.7 NW 28 39 15 21 1011.2 - 0.0
29/02:00pm 19.7 13.5 4.2 36 7.5 NNW 26 43 14 23 1011.5 - 0.0
29/01:30pm 19.5 13.8 4.8 38 7.2 NW 24 39 13 21 1011.9 - 0.0
29/01:00pm 18.6 12.9 5.1 41 6.6 NW 24 33 13 18 1012.2 - 0.0
29/12:30pm 17.8 12.9 5.1 43 6.2 NW 20 35 11 19 1012.4 - 0.0
29/12:00pm 17.4 12.8 5.7 46 5.7 NW 19 32 10 17 1012.8 1013.8 0.0
29/11:30am 17.1 11.4 4.8 44 5.9 NW 24 32 13 17 1013.0 - 0.0
29/11:00am 16.7 11.4 5.0 46 5.6 NW 22 30 12 16 1013.3 - 0.0
29/10:30am 16.6 11.7 4.9 46 5.6 NNW 20 28 11 15 1013.5 - 0.0
29/10:00am 15.6 11.5 4.6 48 5.2 NW 15 22 8 12 1013.3 - 0.0
29/09:30am 14.5 10.4 7.8 64 3.4 N 19 26 10 14 1013.1 - 0.0
29/09:00am 14.1 10.6 7.2 63 3.4 NW 15 24 8 13 1013.0 1014.0 0.0
29/08:30am 14.3 10.9 7.6 64 3.3 NW 15 20 8 11 1012.7 - 0.0
29/08:00am 13.8 10.5 6.2 60 3.7 NNW 13 19 7 10 1012.5 - 0.0
29/07:30am 13.6 10.2 5.7 59 3.8 W 13 26 7 14 1012.2 - 0.0
29/07:00am 12.9 8.1 5.8 62 3.4 WSW 20 30 11 16 1011.7 - 0.0
29/06:30am 12.2 7.7 6.0 66 3.0 WSW 19 26 10 14 1011.8 - 0.0
29/06:00am 11.7 9.2 6.6 71 2.5 WSW 9 15 5 8 1011.6 1012.6 0.0
29/05:30am 13.1 10.7 6.9 66 3.0 ENE 9 19 5 10 1011.2 - 0.0
29/05:00am 12.9 6.8 6.7 66 3.0 WSW 28 48 15 26 1010.3 - 0.0
29/04:59am 12.9 6.4 6.7 66 3.0 W 30 48 16 26 1010.2 - 0.0
29/04:45am 13.0 6.9 6.8 66 3.0 W 28 44 15 24 1010.0 - 0.0
29/04:30am 13.0 10.2 7.0 67 2.9 N 11 20 6 11 1011.0 - 0.0
29/04:00am 13.1 11.1 7.3 68 2.9 W 7 37 4 20 1010.4 - 0.0
29/03:30am 13.0 10.0 7.5 69 2.7 WNW 13 22 7 12 1010.0 - 0.0
29/03:00am 13.2 8.2 7.9 70 2.6 WSW 24 37 13 20 1009.7 1010.6 0.0
29/02:30am 13.1 6.9 7.8 70 2.6 WSW 30 46 16 25 1009.7 - 0.0
29/02:00am 13.2 7.1 6.5 64 3.2 W 28 56 15 30 1009.5 - 0.0
29/01:59am 13.2 7.1 6.8 65 3.1 W 28 56 15 30 1009.6 - 0.0
29/01:30am 13.1 8.1 6.5 64 3.2 WSW 22 32 12 17 1009.9 - 0.0
29/01:00am 13.2 9.2 4.9 57 3.9 W 15 22 8 12 1010.0 - 0.0
29/12:30am 13.4 8.0 4.3 54 4.2 WSW 22 39 12 21 1010.1 - 0.0
29/12:00am 13.7 9.1 3.8 51 4.6 WSW 17 30 9 16 1009.4 1010.3 0.0
 
Date/Time
EST
Temp
°C
App
Temp
°C
Dew
Point
Rel
Hum
%
Delta-T
°C
Wind Press
QNH
hPa
Press
MSL
hPa
Rain
since 9 am
mm
Dir
 
Spd
km/h
Gust
km/h
Spd
kts
Gust
kts
28/11:30pm 14.2 9.8 2.5 45 5.2 W 15 24 8 13 1008.8 - 0.0
28/11:00pm 14.7 9.4 1.6 41 5.8 WNW 19 32 10 17 1008.7 - 0.0
28/10:30pm 15.4 8.7 1.2 38 6.3 WSW 26 44 14 24 1008.4 - 0.0
28/10:00pm 16.9 12.1 4.6 44 5.9 W 19 28 10 15 1007.6 - 0.0
28/09:30pm 18.4 14.2 5.6 43 6.3 W 17 35 9 19 1007.0 - 0.0
28/09:00pm 19.3 15.8 7.1 45 6.3 W 15 30 8 16 1006.6 1007.5 0.0
28/08:30pm 20.7 17.2 5.5 37 7.6 W 13 20 7 11 1006.0 - 0.0
28/08:00pm 21.7 16.9 4.7 33 8.4 W 19 35 10 19 1005.7 - 0.0
28/07:30pm 23.7 18.6 3.1 26 10.1 W 19 37 10 20 1004.9 - 0.0
28/07:00pm 24.4 18.9 1.9 23 10.8 NW 20 28 11 15 1003.8 - 0.0
28/06:30pm 24.8 19.0 2.3 23 10.9 WNW 22 32 12 17 1003.6 - 0.0
28/06:00pm 25.3 19.4 1.4 21 11.5 WNW 22 35 12 19 1003.8 1004.7 0.0
28/05:30pm 26.4 18.2 0.2 18 12.4 WNW 33 52 18 28 1003.5 - 0.0
28/05:27pm 26.8 17.9 0.5 18 12.5 WNW 37 52 20 28 1003.4 - 0.0
28/05:01pm 27.5 19.7 -0.5 16 13.2 NNW 30 48 16 26 1003.0 - 0.0
28/05:00pm 27.6 19.5 -0.5 16 13.2 NNW 32 48 17 26 1003.0 - 0.0
28/04:35pm 27.9 19.7 -1.1 15 13.5 NNW 32 50 17 27 1003.1 - 0.0
28/04:30pm 27.9 20.2 -0.2 16 13.3 NNW 30 43 16 23 1003.2 - 0.0
28/04:00pm 27.8 17.5 -1.2 15 13.5 NNW 43 63 23 34 1003.3 - 0.0
28/03:30pm 27.9 17.4 -1.1 15 13.5 NW 44 65 24 35 1003.7 - 0.0
28/03:00pm 28.1 17.5 -1.9 14 13.9 NNW 44 65 24 35 1003.9 1004.8 0.0
28/02:30pm 27.9 18.1 -0.2 16 13.3 NNW 41 59 22 32 1004.5 - 0.0
28/02:00pm 28.5 17.9 -1.6 14 14.0 N 44 78 24 42 1005.1 - 0.0
28/01:30pm 27.4 18.8 -2.4 14 13.5 NNW 33 65 18 35 1005.3 - 0.0
28/01:00pm 27.0 17.0 -1.8 15 13.2 N 41 65 22 35 1006.2 - 0.0
28/12:30pm 27.7 18.0 -2.2 14 13.7 N 39 57 21 31 1007.1 - 0.0
28/12:00pm 26.7 17.3 -3.0 14 13.3 NNW 37 65 20 35 1008.0 1009.0 0.0
28/11:30am 26.8 17.7 -0.3 17 12.7 NNW 37 59 20 32 1008.3 - 0.0
28/11:01am 27.3 17.5 0.1 17 12.9 NNW 41 59 22 32 1008.7 - 0.0
28/11:00am 27.4 18.0 0.2 17 12.9 NNW 39 54 21 29 1008.9 - 0.0

Other Formats:

Comma delimited format used in spreadsheet applications
http://www.bom.gov.au/fwo/IDV60801/IDV60801.94836.axf

JavaScript Object Notation format (JSON) in row-major order
http://www.bom.gov.au/fwo/IDV60801/IDV60801.94836.json